Time;durP1;ratioP1;P1;durP2;ratioP2;P2;SDS_P1;SDS_P2;PMS_P1;PMS_P2;Temp;Humidity;BMP_temperature;BMP_pressure;BME280_temperature;BME280_humidity;BME280_pressure;Samples;Min_cycle;Max_cycle;Signal;HPM_P1;HPM_P2
2022/01/03 00:00:24;;;;;;;30.80;3.50;;;;;;;;;;5085974;28;20062;-59
2022/01/03 00:02:52;;;;;;;31.98;3.35;;;;;;;;;;5078917;28;20112;-59
2022/01/03 00:05:18;;;;;;;29.70;3.80;;;;;;;;;;5074763;28;20096;-59
2022/01/03 00:07:45;;;;;;;38.38;4.25;;;;;;;;;;5084605;28;20798;-59
2022/01/03 00:10:13;;;;;;;22.65;3.42;;;;;;;;;;5080529;28;20082;-60
2022/01/03 00:12:39;;;;;;;24.83;3.60;;;;;;;;;;5080448;28;20035;-60
2022/01/03 00:15:08;;;;;;;24.65;2.22;;;;;;;;;;5082121;28;20020;-59
2022/01/03 00:17:33;;;;;;;18.90;2.50;;;;;;;;;;5078387;28;20177;-59
2022/01/03 00:19:59;;;;;;;29.77;4.82;;;;;;;;;;5067541;28;20098;-59
2022/01/03 00:22:27;;;;;;;19.33;2.78;;;;;;;;;;5084868;28;20040;-59
2022/01/03 00:25:03;;;;;;;68.82;5.47;;;;;;;;;;5086443;28;20077;-59
2022/01/03 00:28:02;;;;;;;30.33;3.85;;;;;;;;;;5082089;28;20022;-60
2022/01/03 00:30:30;;;;;;;31.48;3.75;;;;;;;;;;5078524;28;20032;-59
2022/01/03 00:32:57;;;;;;;32.42;3.85;;;;;;;;;;5079433;28;20036;-59
2022/01/03 00:35:23;;;;;;;23.60;2.08;;;;;;;;;;5081573;28;20024;-59
2022/01/03 00:37:49;;;;;;;24.25;3.88;;;;;;;;;;5085676;28;20502;-59
2022/01/03 00:40:18;;;;;;;36.17;4.70;;;;;;;;;;5081942;28;20042;-59
2022/01/03 00:42:45;;;;;;;47.75;3.95;;;;;;;;;;5077127;28;20059;-59
2022/01/03 00:45:11;;;;;;;37.60;3.05;;;;;;;;;;5080993;28;20028;-60
2022/01/03 00:47:37;;;;;;;37.08;3.97;;;;;;;;;;5083157;28;20028;-60
2022/01/03 00:50:10;;;;;;;25.00;2.97;;;;;;;;;;5084967;28;20035;-59
2022/01/03 00:52:36;;;;;;;22.55;2.88;;;;;;;;;;5073569;28;20028;-59
2022/01/03 00:55:04;;;;;;;22.95;3.13;;;;;;;;;;5084113;28;20121;-59
2022/01/03 00:57:30;;;;;;;45.83;3.88;;;;;;;;;;5070215;28;20032;-58
2022/01/03 01:00:02;;;;;;;13.35;2.35;;;;;;;;;;5058375;28;20045;-59
2022/01/03 01:02:37;;;;;;;39.55;3.63;;;;;;;;;;5037428;28;20449;-59
2022/01/03 01:05:04;;;;;;;27.63;3.17;;;;;;;;;;5025757;28;20029;-58
2022/01/03 01:07:31;;;;;;;28.13;3.15;;;;;;;;;;5022437;28;20377;-59
2022/01/03 01:10:00;;;;;;;30.98;3.95;;;;;;;;;;5022810;28;20041;-59
2022/01/03 01:12:29;;;;;;;21.85;2.97;;;;;;;;;;5019371;28;20022;-59
2022/01/03 01:14:54;;;;;;;32.53;2.95;;;;;;;;;;5019512;28;20041;-59
2022/01/03 01:17:21;;;;;;;16.45;2.03;;;;;;;;;;5018777;28;20273;-59
2022/01/03 01:19:47;;;;;;;34.22;3.35;;;;;;;;;;5024559;28;20029;-59
2022/01/03 01:22:13;;;;;;;34.72;3.28;;;;;;;;;;5022119;28;20037;-59
2022/01/03 01:25:09;;;;;;;13.77;1.90;;;;;;;;;;5024478;28;20032;-59
2022/01/03 01:27:47;;;;;;;25.85;2.92;;;;;;;;;;5022116;28;20029;-59
2022/01/03 01:30:12;;;;;;;18.98;2.58;;;;;;;;;;5022665;28;20086;-59
2022/01/03 01:32:43;;;;;;;15.77;2.65;;;;;;;;;;5025206;28;20037;-60
2022/01/03 01:35:09;;;;;;;38.58;3.13;;;;;;;;;;5027625;28;20041;-59
2022/01/03 01:37:36;;;;;;;31.27;5.00;;;;;;;;;;5019795;28;20026;-59
2022/01/03 01:40:03;;;;;;;18.95;2.13;;;;;;;;;;5029924;28;20467;-58
2022/01/03 01:42:30;;;;;;;19.92;1.75;;;;;;;;;;5033320;28;20033;-58
2022/01/03 01:45:02;;;;;;;19.33;2.75;;;;;;;;;;5024424;28;20041;-59
2022/01/03 01:47:28;;;;;;;31.42;4.15;;;;;;;;;;5026790;28;20492;-58
2022/01/03 01:49:55;;;;;;;18.92;2.10;;;;;;;;;;5026327;28;20412;-59
2022/01/03 01:52:25;;;;;;;24.85;2.78;;;;;;;;;;5026011;28;20049;-59
2022/01/03 01:54:56;;;;;;;32.58;2.33;;;;;;;;;;5025063;28;20081;-59
2022/01/03 01:57:30;;;;;;;31.77;2.60;;;;;;;;;;5024825;28;20516;-59
2022/01/03 02:00:06;;;;;;;27.52;3.63;;;;;;;;;;5021664;28;20060;-58
2022/01/03 02:02:37;;;;;;;30.00;3.15;;;;;;;;;;5025639;28;20512;-60
2022/01/03 02:05:18;;;;;;;29.45;2.85;;;;;;;;;;5027949;28;20493;-59
2022/01/03 02:08:06;;;;;;;33.70;3.73;;;;;;;;;;5020683;28;20033;-59
2022/01/03 02:10:38;;;;;;;21.73;1.75;;;;;;;;;;5025950;28;20053;-59
2022/01/03 02:13:04;;;;;;;24.50;2.70;;;;;;;;;;5022332;28;20025;-59
2022/01/03 02:15:32;;;;;;;28.65;2.67;;;;;;;;;;5021665;28;20037;-59
2022/01/03 02:17:58;;;;;;;24.05;1.98;;;;;;;;;;5025374;28;20033;-59
2022/01/03 02:20:30;;;;;;;43.63;4.32;;;;;;;;;;5026129;28;20037;-59
2022/01/03 02:22:56;;;;;;;43.15;3.17;;;;;;;;;;5023843;28;20388;-59
2022/01/03 02:25:23;;;;;;;31.42;3.03;;;;;;;;;;5023148;28;20037;-59
2022/01/03 02:27:50;;;;;;;22.58;2.22;;;;;;;;;;5023172;28;20031;-59
2022/01/03 02:30:21;;;;;;;18.83;2.95;;;;;;;;;;5021742;28;20048;-59
2022/01/03 02:32:46;;;;;;;18.15;2.83;;;;;;;;;;5023622;28;20025;-59
2022/01/03 02:35:12;;;;;;;32.67;2.85;;;;;;;;;;5022499;28;20051;-59
2022/01/03 02:37:39;;;;;;;20.50;1.85;;;;;;;;;;5026681;28;20121;-59
2022/01/03 02:40:07;;;;;;;32.13;2.72;;;;;;;;;;5025413;28;20384;-60
2022/01/03 02:42:33;;;;;;;27.30;3.08;;;;;;;;;;5022562;28;20274;-59
2022/01/03 02:45:08;;;;;;;31.20;4.03;;;;;;;;;;5023751;28;20576;-59
2022/01/03 02:47:34;;;;;;;23.85;3.80;;;;;;;;;;5029630;28;20029;-59
2022/01/03 02:50:00;;;;;;;41.55;3.70;;;;;;;;;;5025631;28;20033;-59
2022/01/03 02:52:26;;;;;;;34.30;2.40;;;;;;;;;;5026470;28;20495;-58
2022/01/03 02:54:52;;;;;;;36.38;3.55;;;;;;;;;;5025166;28;20523;-59
2022/01/03 02:57:23;;;;;;;32.45;2.85;;;;;;;;;;5025296;28;20037;-59
2022/01/03 02:59:57;;;;;;;42.65;3.35;;;;;;;;;;5027504;28;20034;-59
2022/01/03 03:02:24;;;;;;;20.90;2.50;;;;;;;;;;5019811;28;20041;-59
2022/01/03 03:04:57;;;;;;;23.75;2.53;;;;;;;;;;5025463;28;20025;-59
2022/01/03 03:07:25;;;;;;;35.47;3.22;;;;;;;;;;5024461;28;20025;-59
2022/01/03 03:09:51;;;;;;;31.67;3.45;;;;;;;;;;5026642;28;20056;-59
2022/01/03 03:12:17;;;;;;;33.95;3.20;;;;;;;;;;5023610;28;20132;-59
2022/01/03 03:14:43;;;;;;;27.85;3.38;;;;;;;;;;5023104;28;20039;-59
2022/01/03 03:17:09;;;;;;;31.30;2.88;;;;;;;;;;5022395;28;20033;-59
2022/01/03 03:19:56;;;;;;;27.25;3.08;;;;;;;;;;5017727;28;20025;-58
2022/01/03 03:22:24;;;;;;;30.92;3.85;;;;;;;;;;5024498;28;20510;-59
2022/01/03 03:24:50;;;;;;;20.05;2.75;;;;;;;;;;5026581;28;20021;-59
2022/01/03 03:27:16;;;;;;;27.45;3.50;;;;;;;;;;5019042;28;20402;-59
2022/01/03 03:29:51;;;;;;;28.95;2.97;;;;;;;;;;5021871;28;20036;-58
2022/01/03 03:32:20;;;;;;;59.75;3.47;;;;;;;;;;5021986;28;20033;-60
2022/01/03 03:34:47;;;;;;;17.70;2.13;;;;;;;;;;5023883;28;20167;-59
2022/01/03 03:37:13;;;;;;;18.13;2.03;;;;;;;;;;5022706;28;20048;-59
2022/01/03 03:39:39;;;;;;;34.50;4.15;;;;;;;;;;5023253;28;20025;-59
2022/01/03 03:42:07;;;;;;;30.13;3.00;;;;;;;;;;5023925;28;20526;-59
2022/01/03 03:44:33;;;;;;;32.03;3.38;;;;;;;;;;5023350;28;20384;-59
2022/01/03 03:46:58;;;;;;;25.33;2.80;;;;;;;;;;5023625;28;20037;-59
2022/01/03 03:49:24;;;;;;;22.65;2.95;;;;;;;;;;5020640;28;20037;-60
2022/01/03 03:51:50;;;;;;;19.58;2.88;;;;;;;;;;5018600;28;20488;-60
2022/01/03 03:54:15;;;;;;;28.02;3.08;;;;;;;;;;5022142;28;20261;-60
2022/01/03 03:56:41;;;;;;;21.30;2.38;;;;;;;;;;5022127;28;20558;-59
2022/01/03 03:59:06;;;;;;;22.70;1.75;;;;;;;;;;5022033;28;20583;-60
2022/01/03 04:01:32;;;;;;;25.25;2.05;;;;;;;;;;5026310;28;20095;-60
2022/01/03 04:03:57;;;;;;;23.65;2.20;;;;;;;;;;5024674;28;20021;-60
2022/01/03 04:06:23;;;;;;;15.75;1.73;;;;;;;;;;5023258;28;20595;-60
2022/01/03 04:08:48;;;;;;;17.27;1.63;;;;;;;;;;5024376;28;20369;-59
2022/01/03 04:11:14;;;;;;;13.98;1.73;;;;;;;;;;5018679;28;20045;-59
2022/01/03 04:13:40;;;;;;;18.95;2.55;;;;;;;;;;5024378;28;20037;-59
2022/01/03 04:16:07;;;;;;;33.65;2.33;;;;;;;;;;5023301;28;20068;-60
2022/01/03 04:18:33;;;;;;;30.23;2.47;;;;;;;;;;5024927;28;20029;-60
2022/01/03 04:20:58;;;;;;;24.70;2.47;;;;;;;;;;5029304;28;20033;-60
2022/01/03 04:23:24;;;;;;;13.57;2.05;;;;;;;;;;5023390;28;20052;-60
2022/01/03 04:25:53;;;;;;;23.20;3.17;;;;;;;;;;5024234;28;20057;-59
2022/01/03 04:28:19;;;;;;;25.17;2.22;;;;;;;;;;5024360;28;20079;-59
2022/01/03 04:30:45;;;;;;;19.00;1.70;;;;;;;;;;5012401;28;20033;-59
2022/01/03 04:33:10;;;;;;;26.92;2.60;;;;;;;;;;5023723;28;20060;-59
2022/01/03 04:35:36;;;;;;;31.67;2.20;;;;;;;;;;5025346;28;20037;-60
2022/01/03 04:38:02;;;;;;;27.30;2.30;;;;;;;;;;5021192;28;20452;-58
2022/01/03 04:40:28;;;;;;;26.63;2.17;;;;;;;;;;5017112;28;20581;-59
2022/01/03 04:42:54;;;;;;;38.45;2.55;;;;;;;;;;5021434;28;20474;-59
2022/01/03 04:45:20;;;;;;;33.60;2.40;;;;;;;;;;5019314;28;20026;-59
2022/01/03 04:47:45;;;;;;;22.67;2.83;;;;;;;;;;5025104;28;20037;-59
2022/01/03 04:50:11;;;;;;;22.92;3.08;;;;;;;;;;5024743;28;20112;-58
2022/01/03 04:52:36;;;;;;;26.05;2.78;;;;;;;;;;5033357;28;20037;-59
2022/01/03 04:55:03;;;;;;;25.10;2.13;;;;;;;;;;5023913;28;20121;-58
2022/01/03 04:57:28;;;;;;;24.10;2.22;;;;;;;;;;5029538;28;20029;-58
2022/01/03 04:59:54;;;;;;;14.57;1.67;;;;;;;;;;5023103;28;20026;-61
2022/01/03 05:02:19;;;;;;;23.08;2.60;;;;;;;;;;5027755;28;20496;-59
2022/01/03 05:04:45;;;;;;;17.08;1.85;;;;;;;;;;5024600;28;20075;-58
2022/01/03 05:07:11;;;;;;;31.90;2.75;;;;;;;;;;5034275;28;20450;-59
2022/01/03 05:09:37;;;;;;;29.90;2.70;;;;;;;;;;5023688;28;20044;-58
2022/01/03 05:12:03;;;;;;;28.05;3.22;;;;;;;;;;5032963;28;20037;-61
2022/01/03 05:14:28;;;;;;;22.08;2.25;;;;;;;;;;5024207;28;20504;-58
2022/01/03 05:16:54;;;;;;;25.58;2.90;;;;;;;;;;5030239;28;20033;-59
2022/01/03 05:19:20;;;;;;;41.58;3.85;;;;;;;;;;5030920;28;20037;-58
2022/01/03 05:21:48;;;;;;;22.33;2.78;;;;;;;;;;5027883;28;20040;-59
2022/01/03 05:24:14;;;;;;;19.73;2.45;;;;;;;;;;5023590;28;20713;-57
2022/01/03 05:26:39;;;;;;;32.65;2.05;;;;;;;;;;5023990;28;20175;-58
2022/01/03 05:29:05;;;;;;;30.30;3.00;;;;;;;;;;5031264;28;20136;-59
2022/01/03 05:31:31;;;;;;;29.23;2.53;;;;;;;;;;5032790;28;20116;-60
2022/01/03 05:33:56;;;;;;;47.17;3.33;;;;;;;;;;5026718;28;20179;-58
2022/01/03 05:36:22;;;;;;;25.75;2.67;;;;;;;;;;5027356;28;20683;-59
2022/01/03 05:38:47;;;;;;;30.08;3.92;;;;;;;;;;5025168;28;20039;-58
2022/01/03 05:41:13;;;;;;;24.75;2.53;;;;;;;;;;5021690;28;20022;-59
2022/01/03 05:43:39;;;;;;;32.17;3.03;;;;;;;;;;5028118;28;20030;-59
2022/01/03 05:46:05;;;;;;;20.00;2.38;;;;;;;;;;5022669;28;20033;-59
2022/01/03 05:48:31;;;;;;;17.02;2.67;;;;;;;;;;5027574;28;20025;-58
2022/01/03 05:50:57;;;;;;;22.38;2.17;;;;;;;;;;5008587;28;20044;-58
2022/01/03 05:53:22;;;;;;;25.27;3.42;;;;;;;;;;5024350;28;20037;-58
2022/01/03 05:55:49;;;;;;;32.45;2.22;;;;;;;;;;5025930;28;20033;-58
2022/01/03 05:58:15;;;;;;;37.35;2.72;;;;;;;;;;5027482;28;20033;-58
2022/01/03 06:00:41;;;;;;;18.60;3.78;;;;;;;;;;5024670;28;20033;-58
2022/01/03 06:03:07;;;;;;;27.48;3.45;;;;;;;;;;5030354;28;20021;-58
2022/01/03 06:07:58;;;;;;;13.68;2.10;;;;;;;;;;5023882;28;20100;-58
2022/01/03 06:10:24;;;;;;;11.68;2.10;;;;;;;;;;5023928;28;20492;-59
2022/01/03 06:12:49;;;;;;;21.38;2.30;;;;;;;;;;5024319;28;20163;-58
2022/01/03 06:15:15;;;;;;;16.60;2.05;;;;;;;;;;5027759;28;20399;-58
2022/01/03 06:17:42;;;;;;;24.83;3.70;;;;;;;;;;5021053;28;20219;-59
2022/01/03 06:20:09;;;;;;;28.80;2.95;;;;;;;;;;5023823;28;20047;-59
2022/01/03 06:22:34;;;;;;;24.27;2.95;;;;;;;;;;5025140;28;20500;-59
2022/01/03 06:25:00;;;;;;;18.17;1.83;;;;;;;;;;5023605;28;20037;-59
2022/01/03 06:27:25;;;;;;;9.63;1.95;;;;;;;;;;5021541;28;20041;-59
2022/01/03 06:29:51;;;;;;;15.18;2.53;;;;;;;;;;5027368;28;20552;-58
2022/01/03 06:32:16;;;;;;;28.02;3.45;;;;;;;;;;5023774;28;20040;-59
2022/01/03 06:34:42;;;;;;;18.15;3.22;;;;;;;;;;5026309;28;20054;-58
2022/01/03 06:37:07;;;;;;;22.10;1.52;;;;;;;;;;5024745;28;20037;-58
2022/01/03 06:39:33;;;;;;;24.92;1.88;;;;;;;;;;5022651;28;20041;-58
2022/01/03 06:41:58;;;;;;;31.92;3.58;;;;;;;;;;5026268;28;20531;-59
2022/01/03 06:44:24;;;;;;;44.05;3.05;;;;;;;;;;5021737;28;20022;-58
2022/01/03 06:46:50;;;;;;;25.45;3.35;;;;;;;;;;5024431;28;20033;-58
2022/01/03 06:49:15;;;;;;;21.52;2.25;;;;;;;;;;5025786;28;20045;-58
2022/01/03 06:51:41;;;;;;;29.85;3.55;;;;;;;;;;5024430;28;20530;-58
2022/01/03 06:54:11;;;;;;;22.48;2.88;;;;;;;;;;5024838;28;20045;-59
2022/01/03 06:56:37;;;;;;;27.50;3.30;;;;;;;;;;5023438;28;20033;-59
2022/01/03 06:59:03;;;;;;;20.98;2.08;;;;;;;;;;5024879;28;20044;-60
2022/01/03 07:01:29;;;;;;;46.00;3.15;;;;;;;;;;5022933;28;20443;-59
2022/01/03 07:03:54;;;;;;;44.92;3.63;;;;;;;;;;5023410;28;20033;-59
2022/01/03 07:06:20;;;;;;;28.70;2.75;;;;;;;;;;5023176;28;20719;-59
2022/01/03 07:08:45;;;;;;;30.98;4.10;;;;;;;;;;5022278;28;20037;-59
2022/01/03 07:11:11;;;;;;;38.42;4.25;;;;;;;;;;5022510;28;20507;-59
2022/01/03 07:13:44;;;;;;;31.83;3.85;;;;;;;;;;5019190;28;20068;-58
2022/01/03 07:18:57;;;;;;;28.33;3.13;;;;;;;;;;5020755;28;20524;-58
2022/01/03 07:21:30;;;;;;;36.65;3.40;;;;;;;;;;5019879;28;20041;-58
2022/01/03 07:23:57;;;;;;;22.20;3.28;;;;;;;;;;5033045;28;20029;-58
2022/01/03 07:26:24;;;;;;;21.38;2.50;;;;;;;;;;5029192;28;20115;-58
2022/01/03 07:28:50;;;;;;;28.40;3.75;;;;;;;;;;5026372;28;20021;-59
2022/01/03 07:31:15;;;;;;;23.33;2.17;;;;;;;;;;5024577;28;20029;-59
2022/01/03 07:33:41;;;;;;;22.27;2.45;;;;;;;;;;5025161;28;20595;-59
2022/01/03 07:36:08;;;;;;;38.97;3.88;;;;;;;;;;5023749;28;20045;-61
2022/01/03 07:38:33;;;;;;;34.47;3.05;;;;;;;;;;5023531;28;20470;-59
2022/01/03 07:40:59;;;;;;;20.95;1.98;;;;;;;;;;5021637;28;20030;-60
2022/01/03 07:43:24;;;;;;;30.88;3.17;;;;;;;;;;5018993;28;20195;-59
2022/01/03 07:45:50;;;;;;;30.58;2.80;;;;;;;;;;5027616;28;20033;-59
2022/01/03 07:48:15;;;;;;;31.88;2.63;;;;;;;;;;5025738;28;20424;-60
2022/01/03 07:50:41;;;;;;;42.58;3.50;;;;;;;;;;5019053;28;20025;-59
2022/01/03 07:53:07;;;;;;;34.85;3.65;;;;;;;;;;5018948;28;20029;-60
2022/01/03 07:55:33;;;;;;;39.80;4.72;;;;;;;;;;5025106;28;20140;-60
2022/01/03 07:57:59;;;;;;;23.70;3.70;;;;;;;;;;5023458;28;20608;-60
2022/01/03 08:00:24;;;;;;;56.00;5.43;;;;;;;;;;5021912;28;20510;-60
2022/01/03 08:02:50;;;;;;;28.60;2.40;;;;;;;;;;5017362;28;20033;-60
2022/01/03 08:05:16;;;;;;;29.77;2.88;;;;;;;;;;5023668;28;20408;-59
2022/01/03 08:07:45;;;;;;;9.80;1.73;;;;;;;;;;5021130;28;20034;-60
2022/01/03 08:10:12;;;;;;;21.35;2.88;;;;;;;;;;5027019;28;20132;-58
2022/01/03 08:12:39;;;;;;;37.60;3.13;;;;;;;;;;5030368;28;20113;-58
2022/01/03 08:15:07;;;;;;;15.80;2.05;;;;;;;;;;5017767;28;20061;-59
2022/01/03 08:17:34;;;;;;;24.52;2.92;;;;;;;;;;5021994;28;20033;-59
2022/01/03 08:19:59;;;;;;;24.75;2.72;;;;;;;;;;5024727;28;20029;-59
2022/01/03 08:22:25;;;;;;;42.00;3.88;;;;;;;;;;5015261;28;20472;-59
2022/01/03 08:24:50;;;;;;;18.88;2.55;;;;;;;;;;5018375;28;20283;-60
2022/01/03 08:27:16;;;;;;;35.30;3.00;;;;;;;;;;5023994;28;20051;-60
2022/01/03 08:29:42;;;;;;;17.92;2.90;;;;;;;;;;5021354;28;20033;-62
2022/01/03 08:32:07;;;;;;;26.17;3.10;;;;;;;;;;5023972;28;20057;-61
2022/01/03 08:34:33;;;;;;;29.83;2.15;;;;;;;;;;5023755;28;20040;-61
2022/01/03 08:37:00;;;;;;;34.72;3.45;;;;;;;;;;5024079;28;20508;-59
2022/01/03 08:39:26;;;;;;;30.52;2.30;;;;;;;;;;5029641;28;20033;-60
2022/01/03 08:41:51;;;;;;;22.90;3.30;;;;;;;;;;5024624;28;20034;-59
2022/01/03 08:44:17;;;;;;;28.17;2.33;;;;;;;;;;5025565;28;20547;-60
2022/01/03 08:46:43;;;;;;;28.75;2.50;;;;;;;;;;5029739;28;20044;-59
2022/01/03 08:49:08;;;;;;;30.17;4.07;;;;;;;;;;5027476;28;20025;-59
2022/01/03 08:51:34;;;;;;;26.35;3.30;;;;;;;;;;5025603;28;20030;-61
2022/01/03 08:53:59;;;;;;;25.17;2.65;;;;;;;;;;5025233;28;20084;-61
2022/01/03 08:56:25;;;;;;;27.52;4.35;;;;;;;;;;5025492;28;20119;-61
2022/01/03 08:58:50;;;;;;;17.38;1.75;;;;;;;;;;5021088;28;20044;-59
2022/01/03 09:01:16;;;;;;;39.10;3.70;;;;;;;;;;5025282;28;20479;-58
2022/01/03 09:03:42;;;;;;;44.20;4.53;;;;;;;;;;5014593;28;20040;-59
2022/01/03 09:06:07;;;;;;;25.50;3.30;;;;;;;;;;5017655;28;20041;-59
2022/01/03 09:08:33;;;;;;;36.13;3.50;;;;;;;;;;5020859;28;20092;-60
2022/01/03 09:10:58;;;;;;;18.17;2.83;;;;;;;;;;5022322;28;20041;-60
2022/01/03 09:13:24;;;;;;;36.80;3.42;;;;;;;;;;5023598;28;20794;-60
2022/01/03 09:15:51;;;;;;;24.15;3.83;;;;;;;;;;5016557;28;20096;-59
2022/01/03 09:18:19;;;;;;;30.67;2.63;;;;;;;;;;5020057;28;20046;-59
2022/01/03 09:20:45;;;;;;;27.10;3.05;;;;;;;;;;5023456;28;20029;-59
2022/01/03 09:23:17;;;;;;;32.90;3.33;;;;;;;;;;5021236;28;20510;-59
2022/01/03 09:30:55;;;;;;;35.55;3.42;;;;;;;;;;5017018;28;20433;-59
2022/01/03 09:33:20;;;;;;;24.30;3.58;;;;;;;;;;5021464;28;20100;-58
2022/01/03 09:35:46;;;;;;;16.23;2.05;;;;;;;;;;5024872;28;20049;-59
2022/01/03 09:38:12;;;;;;;45.92;4.05;;;;;;;;;;5027352;28;20045;-59
2022/01/03 09:40:40;;;;;;;41.63;3.38;;;;;;;;;;5025291;28;20115;-59
2022/01/03 09:43:08;;;;;;;33.08;2.53;;;;;;;;;;5024828;28;20064;-59
2022/01/03 09:45:34;;;;;;;23.23;4.10;;;;;;;;;;5023986;28;20036;-59
2022/01/03 09:48:02;;;;;;;30.15;3.80;;;;;;;;;;5023891;28;20029;-59
2022/01/03 09:50:31;;;;;;;23.95;2.10;;;;;;;;;;5020221;28;20129;-59
2022/01/03 09:52:57;;;;;;;25.95;3.33;;;;;;;;;;5025703;28;20025;-59
2022/01/03 09:55:24;;;;;;;28.83;2.45;;;;;;;;;;5021689;28;20584;-59
2022/01/03 09:57:50;;;;;;;22.40;1.95;;;;;;;;;;5028270;28;20114;-58
2022/01/03 10:00:22;;;;;;;27.73;2.63;;;;;;;;;;5025971;28;20049;-59
2022/01/03 10:02:52;;;;;;;22.75;2.47;;;;;;;;;;5025546;28;20435;-59
2022/01/03 10:05:19;;;;;;;35.67;2.95;;;;;;;;;;5025197;28;20031;-59
2022/01/03 10:07:45;;;;;;;32.80;3.45;;;;;;;;;;5020561;28;20029;-60
2022/01/03 10:10:11;;;;;;;13.02;1.98;;;;;;;;;;5028126;28;20036;-60
2022/01/03 10:12:38;;;;;;;27.35;3.08;;;;;;;;;;5027974;28;20104;-60
2022/01/03 10:15:08;;;;;;;36.35;2.50;;;;;;;;;;5026766;28;20026;-59
2022/01/03 10:17:42;;;;;;;31.33;3.25;;;;;;;;;;5027991;28;20032;-59
2022/01/03 10:20:12;;;;;;;24.63;2.72;;;;;;;;;;5027121;28;20489;-59
2022/01/03 10:22:39;;;;;;;20.20;2.40;;;;;;;;;;5023571;28;20485;-59
2022/01/03 10:25:18;;;;;;;35.10;3.25;;;;;;;;;;5025922;28;20445;-59
2022/01/03 10:27:56;;;;;;;23.90;2.50;;;;;;;;;;5027519;28;20128;-59
2022/01/03 10:30:43;;;;;;;24.55;2.38;;;;;;;;;;5027030;28;20043;-60
2022/01/03 10:33:21;;;;;;;40.72;5.25;;;;;;;;;;5026470;28;20033;-59
2022/01/03 10:35:52;;;;;;;28.17;2.72;;;;;;;;;;5025769;28;20108;-59
2022/01/03 10:38:30;;;;;;;30.60;2.58;;;;;;;;;;5021465;28;20029;-59
2022/01/03 10:41:11;;;;;;;26.67;2.35;;;;;;;;;;5023182;28;20120;-59
2022/01/03 10:43:37;;;;;;;25.60;2.63;;;;;;;;;;5023035;28;20021;-59
2022/01/03 10:46:20;;;;;;;34.05;3.47;;;;;;;;;;5017655;28;20037;-60
2022/01/03 10:48:47;;;;;;;17.70;2.22;;;;;;;;;;5024693;28;20144;-59
2022/01/03 10:51:21;;;;;;;22.42;3.05;;;;;;;;;;5021571;28;20033;-59
2022/01/03 10:53:46;;;;;;;26.05;3.53;;;;;;;;;;5027954;28;20029;-60
2022/01/03 10:56:24;;;;;;;30.92;3.85;;;;;;;;;;5022167;28;20032;-60
2022/01/03 10:58:53;;;;;;;23.42;3.20;;;;;;;;;;5019948;28;20026;-59
2022/01/03 11:01:21;;;;;;;34.83;3.65;;;;;;;;;;5022282;28;20104;-60
2022/01/03 11:03:48;;;;;;;33.90;4.82;;;;;;;;;;5037540;28;20021;-58
2022/01/03 11:06:36;;;;;;;32.33;3.00;;;;;;;;;;5026025;28;20030;-50
2022/01/03 11:11:49;;;;;;;17.65;2.53;;;;;;;;;;5022860;28;20124;-59
2022/01/03 11:14:41;;;;;;;34.45;3.25;;;;;;;;;;5022811;28;20312;-59
2022/01/03 11:17:27;;;;;;;31.23;3.00;;;;;;;;;;5029240;28;20067;-56
2022/01/03 11:19:57;;;;;;;31.73;2.70;;;;;;;;;;5026487;28;20029;-58
2022/01/03 11:22:39;;;;;;;39.72;4.70;;;;;;;;;;5025363;28;20033;-58
2022/01/03 11:25:06;;;;;;;29.42;4.00;;;;;;;;;;5026136;28;20049;-59
2022/01/03 11:27:38;;;;;;;20.00;2.63;;;;;;;;;;5022757;28;20508;-59
2022/01/03 11:30:04;;;;;;;21.58;2.38;;;;;;;;;;5023741;28;20103;-59
2022/01/03 11:32:31;;;;;;;33.47;2.75;;;;;;;;;;5019213;28;20389;-56
2022/01/03 11:34:57;;;;;;;31.77;3.72;;;;;;;;;;5023071;28;20062;-58
2022/01/03 11:37:24;;;;;;;31.73;3.60;;;;;;;;;;5016700;28;20049;-58
2022/01/03 11:39:51;;;;;;;34.72;3.15;;;;;;;;;;5022278;28;20140;-58
2022/01/03 11:42:20;;;;;;;36.35;3.92;;;;;;;;;;5019228;28;20021;-58
2022/01/03 11:44:46;;;;;;;22.27;2.58;;;;;;;;;;5024958;28;20022;-57
2022/01/03 11:47:12;;;;;;;23.65;2.75;;;;;;;;;;5022574;28;20030;-57
2022/01/03 11:49:38;;;;;;;26.13;3.33;;;;;;;;;;5013249;28;20405;-58
2022/01/03 11:52:09;;;;;;;35.58;4.20;;;;;;;;;;5037214;28;20400;-57
2022/01/03 11:54:35;;;;;;;21.17;2.80;;;;;;;;;;5022359;28;20029;-57
2022/01/03 11:57:20;;;;;;;32.60;3.97;;;;;;;;;;5024267;28;20293;-57
2022/01/03 12:05:46;;;;;;;31.10;3.42;;;;;;;;;;5019525;28;20036;-57
2022/01/03 12:08:22;;;;;;;35.97;3.38;;;;;;;;;;5022278;28;20410;-58
2022/01/03 12:10:48;;;;;;;32.03;2.92;;;;;;;;;;5026704;28;20029;-56
2022/01/03 12:13:14;;;;;;;28.30;3.38;;;;;;;;;;5024605;28;20039;-59
2022/01/03 12:15:41;;;;;;;32.10;3.20;;;;;;;;;;5026210;28;20083;-57
2022/01/03 12:18:27;;;;;;;24.02;2.65;;;;;;;;;;5023415;28;20037;-57
2022/01/03 12:20:53;;;;;;;30.45;3.78;;;;;;;;;;5017009;28;20293;-57
2022/01/03 12:23:48;;;;;;;28.55;3.17;;;;;;;;;;5025481;28;20055;-58
2022/01/03 12:26:19;;;;;;;31.98;4.55;;;;;;;;;;5006370;28;20132;-57
2022/01/03 12:29:03;;;;;;;26.40;2.88;;;;;;;;;;5024261;28;20044;-59
2022/01/03 12:32:06;;;;;;;30.02;3.08;;;;;;;;;;5021630;28;20041;-57
2022/01/03 12:34:32;;;;;;;25.45;4.03;;;;;;;;;;5018448;28;20369;-58
2022/01/03 12:37:22;;;;;;;26.25;3.47;;;;;;;;;;5021306;28;20025;-57
2022/01/03 12:40:03;;;;;;;36.35;3.00;;;;;;;;;;5022568;28;20116;-57
2022/01/03 12:42:53;;;;;;;23.27;2.95;;;;;;;;;;5019950;28;20025;-57
2022/01/03 12:45:32;;;;;;;41.50;4.97;;;;;;;;;;5022795;28;20044;-57
2022/01/03 12:50:51;;;;;;;45.53;3.58;;;;;;;;;;5023261;28;20039;-57
2022/01/03 12:53:26;;;;;;;30.73;3.55;;;;;;;;;;5022683;28;20067;-56
2022/01/03 12:56:01;;;;;;;29.55;3.65;;;;;;;;;;5016488;28;20139;-58
2022/01/03 12:58:26;;;;;;;29.98;2.33;;;;;;;;;;5021133;28;20032;-58
2022/01/03 13:01:04;;;;;;;21.13;3.05;;;;;;;;;;5018361;28;20037;-59
2022/01/03 13:03:52;;;;;;;24.33;3.17;;;;;;;;;;5017893;28;20082;-58
2022/01/03 13:06:34;;;;;;;24.33;3.40;;;;;;;;;;5026864;28;20090;-57
2022/01/03 13:09:03;;;;;;;12.15;1.52;;;;;;;;;;5018090;28;20041;-57
2022/01/03 13:11:32;;;;;;;20.30;2.55;;;;;;;;;;5026982;28;20051;-58
2022/01/03 13:14:07;;;;;;;17.33;1.85;;;;;;;;;;5022391;28;20072;-57
2022/01/03 13:16:39;;;;;;;18.48;1.95;;;;;;;;;;5023775;28;20067;-57
2022/01/03 13:19:12;;;;;;;19.58;2.17;;;;;;;;;;5029920;28;20104;-57
2022/01/03 13:22:02;;;;;;;21.38;3.58;;;;;;;;;;5028598;28;20532;-57
2022/01/03 13:24:46;;;;;;;21.60;3.05;;;;;;;;;;5027260;28;20032;-57
2022/01/03 13:27:15;;;;;;;23.48;3.08;;;;;;;;;;5028629;28;20498;-57
2022/01/03 13:29:46;;;;;;;23.20;2.58;;;;;;;;;;5027605;28;20766;-57
2022/01/03 13:32:19;;;;;;;19.00;3.10;;;;;;;;;;5016490;28;20029;-58
2022/01/03 13:34:49;;;;;;;16.80;2.33;;;;;;;;;;5025477;28;20341;-57
2022/01/03 13:37:15;;;;;;;32.72;2.50;;;;;;;;;;5026932;28;20086;-57
2022/01/03 13:39:44;;;;;;;19.40;2.80;;;;;;;;;;5029471;28;20550;-57
2022/01/03 13:42:14;;;;;;;25.73;2.80;;;;;;;;;;5020678;28;20979;-57
2022/01/03 13:50:04;;;;;;;25.98;3.08;;;;;;;;;;5024462;28;20463;-57
2022/01/03 13:52:35;;;;;;;29.23;3.58;;;;;;;;;;5028217;28;20087;-57
2022/01/03 13:55:12;;;;;;;22.33;2.67;;;;;;;;;;5029853;28;20045;-58
2022/01/03 13:57:38;;;;;;;20.48;2.50;;;;;;;;;;5026263;28;20412;-57
2022/01/03 14:00:06;;;;;;;21.15;2.72;;;;;;;;;;5029281;28;20029;-58
2022/01/03 14:02:33;;;;;;;23.80;2.72;;;;;;;;;;5025886;28;20570;-57
2022/01/03 14:04:59;;;;;;;17.33;2.97;;;;;;;;;;5025336;28;20428;-57
2022/01/03 14:07:25;;;;;;;26.27;3.03;;;;;;;;;;5022856;28;20079;-57
2022/01/03 14:09:59;;;;;;;20.02;2.88;;;;;;;;;;5027464;28;20443;-57
2022/01/03 14:12:27;;;;;;;14.88;2.58;;;;;;;;;;5027649;28;20029;-57
2022/01/03 14:14:55;;;;;;;16.88;2.53;;;;;;;;;;5022460;28;20044;-58
2022/01/03 14:17:24;;;;;;;31.77;2.10;;;;;;;;;;5020298;28;20568;-58
2022/01/03 14:20:08;;;;;;;23.85;3.00;;;;;;;;;;5022169;28;20044;-57
2022/01/03 14:22:38;;;;;;;19.08;2.88;;;;;;;;;;5023108;28;20484;-57
2022/01/03 14:25:08;;;;;;;20.83;2.42;;;;;;;;;;5022637;28;20543;-58
2022/01/03 14:27:48;;;;;;;17.08;2.28;;;;;;;;;;5025877;28;20041;-56
2022/01/03 14:30:37;;;;;;;21.33;2.35;;;;;;;;;;5017994;28;20401;-58
2022/01/03 14:33:05;;;;;;;24.65;3.50;;;;;;;;;;5021926;28;20024;-58
2022/01/03 14:35:44;;;;;;;14.02;2.10;;;;;;;;;;5033831;28;20112;-58
2022/01/03 14:38:16;;;;;;;12.55;1.58;;;;;;;;;;5024670;28;20499;-58
2022/01/03 14:40:52;;;;;;;21.73;2.00;;;;;;;;;;5018631;28;20083;-59
2022/01/03 14:43:28;;;;;;;17.42;2.47;;;;;;;;;;5021775;28;20485;-57
2022/01/03 14:46:05;;;;;;;31.85;2.58;;;;;;;;;;5022254;28;20452;-57
2022/01/03 14:48:30;;;;;;;21.48;1.88;;;;;;;;;;5024767;28;20459;-57
2022/01/03 14:51:11;;;;;;;35.83;3.35;;;;;;;;;;5024289;28;20051;-58
2022/01/03 14:53:37;;;;;;;24.80;3.72;;;;;;;;;;5023920;28;20029;-56
2022/01/03 14:56:02;;;;;;;22.67;2.58;;;;;;;;;;5024113;28;20034;-57
2022/01/03 14:58:28;;;;;;;17.88;2.70;;;;;;;;;;5023424;28;20076;-58
2022/01/03 15:00:54;;;;;;;13.95;2.28;;;;;;;;;;5032268;28;20555;-58
2022/01/03 15:03:23;;;;;;;21.55;2.58;;;;;;;;;;5021839;28;20420;-57
2022/01/03 15:05:49;;;;;;;12.30;2.40;;;;;;;;;;5028046;28;20036;-58
2022/01/03 15:08:15;;;;;;;28.55;3.05;;;;;;;;;;5026262;28;20514;-58